Time;durP1;ratioP1;P1;durP2;ratioP2;P2;SDS_P1;SDS_P2;PMS_P1;PMS_P2;Temp;Humidity;BMP_temperature;BMP_pressure;BME280_temperature;BME280_humidity;BME280_pressure;Samples;Min_cycle;Max_cycle;Signal;HPM_P1;HPM_P2
2021/09/30 00:00:46;;;;;;;135.40;75.32;;;;;;;11.78;100.00;99649.19;2115386;28;20181;-73
2021/09/30 00:01:47;;;;;;;138.48;79.05;;;;;;;11.76;100.00;99633.44;2115379;28;20650;-74
2021/09/30 00:02:49;;;;;;;142.20;77.77;;;;;;;11.78;100.00;99641.97;2114753;28;20583;-73
2021/09/30 00:03:50;;;;;;;138.77;78.88;;;;;;;11.77;100.00;99637.72;2115089;28;20197;-74
2021/09/30 00:04:51;;;;;;;139.17;77.23;;;;;;;11.76;100.00;99635.31;2115377;28;20199;-73
2021/09/30 00:05:52;;;;;;;141.60;79.60;;;;;;;11.78;100.00;99638.50;2115596;28;20249;-73
2021/09/30 00:06:54;;;;;;;152.40;79.87;;;;;;;11.77;100.00;99636.91;2115351;28;20189;-74
2021/09/30 00:07:54;;;;;;;142.93;76.75;;;;;;;11.77;100.00;99634.25;2115344;28;20240;-73
2021/09/30 00:08:56;;;;;;;140.03;76.57;;;;;;;11.76;100.00;99635.31;2115392;28;20181;-73
2021/09/30 00:10:01;;;;;;;143.48;79.50;;;;;;;11.75;100.00;99639.88;2115371;28;20200;-73
2021/09/30 00:11:07;;;;;;;141.27;77.90;;;;;;;11.75;100.00;99637.22;2115451;28;20516;-73
2021/09/30 00:12:11;;;;;;;150.32;78.93;;;;;;;11.76;100.00;99638.00;2115427;28;20627;-73
2021/09/30 00:13:25;;;;;;;156.05;81.07;;;;;;;11.75;100.00;99639.88;2117190;28;20200;-72
2021/09/30 00:14:37;;;;;;;147.60;78.80;;;;;;;11.76;100.00;99633.44;2117360;28;20180;-73
2021/09/30 00:15:53;;;;;;;147.18;79.35;;;;;;;11.76;100.00;99636.13;2116370;28;20196;-73
2021/09/30 00:32:28;;;;;;;146.18;77.38;;;;;;;11.78;100.00;99644.63;2109722;28;20604;-73
2021/09/30 00:32:42;;;;;;;153.38;78.90;;;;;;;11.85;100.00;99647.00;2110409;28;20182;-73
2021/09/30 00:33:50;;;;;;;151.23;75.10;;;;;;;11.85;100.00;99652.34;2111097;28;20247;-73
2021/09/30 00:34:58;;;;;;;145.55;77.57;;;;;;;11.84;100.00;99640.84;2109059;28;20582;-73
2021/09/30 00:41:41;;;;;;;148.60;78.68;;;;;;;11.89;100.00;99643.44;2113517;28;20675;-73
2021/09/30 00:46:51;;;;;;;144.68;77.50;;;;;;;11.93;100.00;99643.66;2115952;28;20219;-73
2021/09/30 00:47:58;;;;;;;163.35;80.57;;;;;;;11.94;100.00;99642.56;2117075;28;20165;-73
2021/09/30 00:49:07;;;;;;;162.27;80.13;;;;;;;11.89;100.00;99638.09;2117044;27;20182;-74
2021/09/30 00:50:21;;;;;;;146.40;78.75;;;;;;;11.90;100.00;99644.22;2116092;28;20188;-74
2021/09/30 00:51:30;;;;;;;162.30;79.88;;;;;;;11.90;100.00;99641.56;2109286;28;20256;-74
2021/09/30 00:52:35;;;;;;;157.68;79.13;;;;;;;11.93;100.00;99651.69;2108731;28;20201;-73
2021/09/30 00:53:50;;;;;;;154.30;81.13;;;;;;;11.93;100.00;99646.34;2108229;28;20228;-73
2021/09/30 01:20:21;;;;;;;144.35;71.85;;;;;;;12.06;100.00;99663.50;2112348;28;20200;-74
2021/09/30 02:18:58;;;;;;;120.47;67.00;;;;;;;12.31;100.00;99689.88;2109807;28;20196;-73
2021/09/30 02:20:15;;;;;;;126.85;64.43;;;;;;;12.35;100.00;99692.78;2112067;28;20209;-73
2021/09/30 02:23:06;;;;;;;128.98;66.10;;;;;;;12.34;100.00;99694.66;2099067;28;20193;-73
2021/09/30 02:24:24;;;;;;;118.70;65.78;;;;;;;12.36;100.00;99692.50;2111148;28;20189;-73
2021/09/30 02:31:32;;;;;;;121.18;66.07;;;;;;;12.41;100.00;99711.13;2081804;28;20196;-73
2021/09/30 02:59:18;;;;;;;131.48;69.75;;;;;;;12.42;100.00;99710.06;2115148;28;20658;-73
2021/09/30 03:00:19;;;;;;;137.45;70.72;;;;;;;12.44;100.00;99710.56;2106759;28;20221;-73
2021/09/30 03:01:24;;;;;;;134.07;67.90;;;;;;;12.43;100.00;99703.63;2107021;28;20209;-74
2021/09/30 03:02:32;;;;;;;139.15;69.25;;;;;;;12.45;100.00;99717.50;2108057;28;20224;-74
2021/09/30 03:03:36;;;;;;;122.63;69.05;;;;;;;12.46;100.00;99712.94;2106665;28;20687;-73
2021/09/30 03:04:38;;;;;;;130.05;69.30;;;;;;;12.45;100.00;99716.72;2107029;28;20699;-74
2021/09/30 03:05:41;;;;;;;135.90;70.68;;;;;;;12.47;100.00;99721.75;2106727;28;20282;-73
2021/09/30 03:06:42;;;;;;;132.85;69.00;;;;;;;12.46;100.00;99723.66;2106735;28;20247;-73
2021/09/30 03:07:44;;;;;;;133.75;68.93;;;;;;;12.49;100.00;99728.41;2115013;28;20564;-73
2021/09/30 03:08:47;;;;;;;138.90;72.95;;;;;;;12.49;100.00;99722.25;2106690;28;20687;-73
2021/09/30 03:09:53;;;;;;;131.48;69.80;;;;;;;12.47;100.00;99725.22;2106853;28;20189;-73
2021/09/30 03:10:57;;;;;;;130.07;67.43;;;;;;;12.51;100.00;99736.97;2107430;28;20181;-73
2021/09/30 03:12:00;;;;;;;132.15;68.38;;;;;;;12.48;100.00;99731.38;2115342;28;20196;-73
2021/09/30 03:13:02;;;;;;;129.48;69.40;;;;;;;12.50;100.00;99732.66;2114875;28;20239;-73
2021/09/30 03:14:06;;;;;;;134.25;69.35;;;;;;;12.50;100.00;99735.34;2114892;28;20248;-73
2021/09/30 03:15:16;;;;;;;130.10;69.65;;;;;;;12.50;100.00;99732.66;2107068;28;20679;-73
2021/09/30 03:16:24;;;;;;;139.10;70.60;;;;;;;12.50;100.00;99732.66;2107394;28;20185;-73
2021/09/30 03:17:42;;;;;;;134.02;66.90;;;;;;;12.51;100.00;99736.13;2108021;28;20725;-73
2021/09/30 03:18:54;;;;;;;131.93;69.70;;;;;;;12.53;100.00;99731.31;2108746;28;20269;-73
2021/09/30 03:19:59;;;;;;;136.23;71.38;;;;;;;12.54;100.00;99735.56;2107929;28;20630;-73
2021/09/30 03:22:20;;;;;;;131.77;68.82;;;;;;;12.54;100.00;99735.56;2089477;28;20203;-73
2021/09/30 03:23:24;;;;;;;134.82;71.15;;;;;;;12.54;100.00;99730.22;2102143;28;20304;-74
2021/09/30 03:24:26;;;;;;;129.98;68.65;;;;;;;12.51;100.00;99728.09;2106815;28;20213;-73
2021/09/30 03:25:28;;;;;;;133.27;67.40;;;;;;;12.54;100.00;99735.56;2106616;28;20691;-74
2021/09/30 03:26:32;;;;;;;133.57;68.10;;;;;;;12.56;100.00;99728.03;2106914;28;20204;-73
2021/09/30 03:27:32;;;;;;;133.65;66.38;;;;;;;12.54;100.00;99722.97;2106665;28;20198;-74
2021/09/30 03:28:36;;;;;;;129.32;67.50;;;;;;;12.56;100.00;99733.41;2106750;28;20205;-74
2021/09/30 03:29:37;;;;;;;132.15;66.70;;;;;;;12.55;100.00;99732.59;2106673;28;20215;-74
2021/09/30 03:30:40;;;;;;;134.77;66.97;;;;;;;12.55;100.00;99731.81;2114905;28;20276;-73
2021/09/30 03:31:44;;;;;;;132.98;68.07;;;;;;;12.56;100.00;99738.75;2106547;28;20238;-73
2021/09/30 03:33:06;;;;;;;117.70;65.55;;;;;;;12.56;100.00;99738.75;2115427;28;20173;-73
2021/09/30 03:34:10;;;;;;;124.95;65.47;;;;;;;12.56;100.00;99736.88;2114755;28;20805;-73
2021/09/30 03:35:11;;;;;;;125.30;66.77;;;;;;;12.57;100.00;99734.97;2114957;28;20607;-73
2021/09/30 03:36:14;;;;;;;135.23;69.35;;;;;;;12.56;100.00;99733.41;2114814;28;20189;-74
2021/09/30 03:37:14;;;;;;;132.85;66.25;;;;;;;12.57;100.00;99732.31;2106517;28;20197;-73
2021/09/30 03:38:21;;;;;;;138.95;67.70;;;;;;;12.57;100.00;99738.44;2106676;28;20201;-73
2021/09/30 03:39:23;;;;;;;128.10;66.15;;;;;;;12.57;100.00;99734.97;2115203;28;20169;-73
2021/09/30 03:40:25;;;;;;;131.63;68.43;;;;;;;12.58;100.00;99739.25;2114752;28;20195;-73
2021/09/30 03:41:26;;;;;;;129.98;66.55;;;;;;;12.55;100.00;99737.94;2114909;28;20197;-74
2021/09/30 03:42:28;;;;;;;120.07;65.95;;;;;;;12.56;100.00;99733.41;2114872;28;20189;-73
2021/09/30 03:43:33;;;;;;;130.55;65.32;;;;;;;12.63;100.00;99739.19;2107201;28;20197;-74
2021/09/30 03:44:38;;;;;;;123.60;63.58;;;;;;;12.62;100.00;99742.94;2106805;28;20596;-74
2021/09/30 03:45:43;;;;;;;122.65;64.43;;;;;;;12.61;100.00;99739.47;2106873;28;20190;-74
2021/09/30 03:46:56;;;;;;;124.50;64.38;;;;;;;12.57;100.00;99727.75;2107931;28;20204;-73
2021/09/30 03:48:20;;;;;;;126.72;63.45;;;;;;;12.58;100.00;99736.56;2109474;28;20197;-73
2021/09/30 03:49:26;;;;;;;116.95;63.58;;;;;;;12.57;100.00;99734.97;2114768;28;20627;-73
2021/09/30 03:50:32;;;;;;;127.68;63.85;;;;;;;12.59;100.00;99740.81;2106825;28;20703;-73
2021/09/30 03:51:46;;;;;;;126.68;63.25;;;;;;;12.59;100.00;99740.81;2114932;28;20643;-74
2021/09/30 03:53:01;;;;;;;122.00;63.13;;;;;;;12.58;100.00;99734.69;2114795;28;20184;-74
2021/09/30 03:54:16;;;;;;;121.70;62.03;;;;;;;12.60;100.00;99751.28;2108247;28;20652;-74
2021/09/30 03:55:29;;;;;;;125.70;62.08;;;;;;;12.62;100.00;99745.63;2114987;28;20181;-74
2021/09/30 03:56:49;;;;;;;120.90;64.53;;;;;;;12.64;100.00;99762.19;2114789;28;20777;-73
2021/09/30 03:59:08;;;;;;;126.75;64.80;;;;;;;12.63;100.00;99755.22;2109064;28;20242;-74
2021/09/30 03:59:20;;;;;;;122.57;63.72;;;;;;;12.62;100.00;99748.28;2109157;28;20183;-73
2021/09/30 04:00:30;;;;;;;125.07;63.60;;;;;;;12.61;100.00;99752.84;2108502;28;20189;-73
2021/09/30 04:01:33;;;;;;;117.97;64.18;;;;;;;12.61;100.00;99752.06;2106592;28;20201;-73
2021/09/30 04:02:34;;;;;;;122.05;64.45;;;;;;;12.62;100.00;99759.00;2106370;28;20193;-73
2021/09/30 04:03:36;;;;;;;116.63;63.00;;;;;;;12.60;100.00;99755.84;2106303;28;20194;-73
2021/09/30 04:04:37;;;;;;;123.00;63.20;;;;;;;12.66;100.00;99757.31;2114655;28;20234;-74
2021/09/30 04:05:40;;;;;;;116.68;62.22;;;;;;;12.63;100.00;99758.72;2106410;28;20213;-73
2021/09/30 04:06:41;;;;;;;117.85;63.88;;;;;;;12.63;100.00;99763.25;2106314;28;20284;-73
2021/09/30 04:07:43;;;;;;;117.03;64.22;;;;;;;12.64;100.00;99765.66;2106427;28;20714;-73
2021/09/30 04:08:44;;;;;;;115.13;62.90;;;;;;;12.62;100.00;99770.50;2114659;28;20253;-73
2021/09/30 04:09:46;;;;;;;126.30;65.13;;;;;;;12.64;100.00;99767.53;2114808;28;20292;-73
2021/09/30 04:10:47;;;;;;;122.20;63.47;;;;;;;12.62;100.00;99767.03;2114666;28;20197;-74
2021/09/30 04:11:48;;;;;;;129.97;66.03;;;;;;;12.62;100.00;99765.16;2106282;28;20194;-74
2021/09/30 04:12:51;;;;;;;139.95;67.82;;;;;;;12.63;100.00;99777.44;2114613;28;20197;-74
2021/09/30 04:13:53;;;;;;;129.30;64.53;;;;;;;12.63;100.00;99771.28;2106417;28;20181;-75
2021/09/30 04:14:56;;;;;;;130.98;66.75;;;;;;;12.63;100.00;99777.44;2114638;28;20292;-74
2021/09/30 04:15:58;;;;;;;130.77;65.65;;;;;;;12.61;100.00;99776.94;2106515;28;20198;-74
2021/09/30 04:17:01;;;;;;;126.50;63.77;;;;;;;12.63;100.00;99780.13;2106293;28;20652;-74
2021/09/30 04:18:02;;;;;;;127.85;65.00;;;;;;;12.63;100.00;99782.00;2106336;28;20702;-74
2021/09/30 04:19:04;;;;;;;135.35;66.88;;;;;;;12.65;100.00;99785.97;2106260;28;20676;-74
2021/09/30 04:20:06;;;;;;;127.43;65.63;;;;;;;12.63;100.00;99782.81;2106406;28;20194;-73
2021/09/30 04:21:08;;;;;;;139.63;68.20;;;;;;;12.67;100.00;99783.00;2106287;28;20189;-74
2021/09/30 04:22:09;;;;;;;128.93;64.47;;;;;;;12.65;100.00;99780.63;2106397;28;20629;-74
2021/09/30 04:23:11;;;;;;;134.63;65.67;;;;;;;12.65;100.00;99779.81;2114711;28;20189;-74
2021/09/30 04:24:13;;;;;;;134.52;67.32;;;;;;;12.65;100.00;99783.31;2114539;28;20197;-74
2021/09/30 04:25:14;;;;;;;134.77;68.17;;;;;;;12.69;100.00;99788.88;2106118;28;20212;-73
2021/09/30 04:26:15;;;;;;;127.93;65.68;;;;;;;12.70;100.00;99782.44;2106182;28;20290;-74
2021/09/30 04:27:19;;;;;;;134.43;66.67;;;;;;;12.67;100.00;99788.34;2106273;28;20189;-73
2021/09/30 04:28:24;;;;;;;135.93;67.45;;;;;;;12.67;100.00;99788.34;2107224;28;20186;-73
2021/09/30 04:29:32;;;;;;;131.20;66.90;;;;;;;12.66;100.00;99787.56;2107472;28;20189;-73
2021/09/30 04:30:32;;;;;;;123.03;64.75;;;;;;;12.65;100.00;99780.63;2106653;28;20202;-73
2021/09/30 04:31:50;;;;;;;127.90;66.82;;;;;;;12.68;100.00;99784.59;2108528;28;20239;-73
2021/09/30 04:32:52;;;;;;;127.30;66.15;;;;;;;12.67;100.00;99785.69;2114863;28;20651;-74
2021/09/30 04:33:54;;;;;;;139.23;69.25;;;;;;;12.70;100.00;99782.44;2114508;28;20190;-73
2021/09/30 04:34:55;;;;;;;132.75;67.55;;;;;;;12.66;100.00;99779.53;2106259;28;20198;-73
2021/09/30 04:35:57;;;;;;;128.60;66.55;;;;;;;12.65;100.00;99774.47;2106243;28;20247;-73
2021/09/30 04:36:59;;;;;;;131.32;66.50;;;;;;;12.66;100.00;99784.09;2106516;28;20198;-74
2021/09/30 04:38:01;;;;;;;144.82;66.82;;;;;;;12.64;100.00;99781.72;2106203;28;20185;-74
2021/09/30 04:39:02;;;;;;;129.65;64.65;;;;;;;12.63;100.00;99777.44;2106203;28;20266;-74
2021/09/30 04:40:07;;;;;;;135.40;67.30;;;;;;;12.62;100.00;99775.06;2106744;28;20201;-73
2021/09/30 04:41:09;;;;;;;129.57;65.50;;;;;;;12.62;100.00;99780.41;2106571;28;20254;-73
2021/09/30 04:42:11;;;;;;;131.30;63.80;;;;;;;12.68;100.00;99784.59;2106175;28;20243;-74
2021/09/30 04:43:12;;;;;;;136.05;66.80;;;;;;;12.65;100.00;99790.53;2106378;28;20284;-73
2021/09/30 04:44:15;;;;;;;138.70;65.55;;;;;;;12.64;100.00;99788.94;2114755;28;20191;-73
2021/09/30 04:45:16;;;;;;;137.65;67.25;;;;;;;12.63;100.00;99780.13;2114524;28;20193;-74
2021/09/30 04:46:22;;;;;;;128.55;66.30;;;;;;;12.64;100.00;99783.59;2106750;28;20201;-73
2021/09/30 04:47:42;;;;;;;122.63;64.50;;;;;;;12.61;100.00;99784.97;2109068;28;20197;-73
2021/09/30 04:48:49;;;;;;;125.63;68.28;;;;;;;12.62;100.00;99786.56;2106541;28;20186;-73
2021/09/30 04:49:54;;;;;;;129.20;67.72;;;;;;;12.62;100.00;99788.44;2114641;28;20224;-73
2021/09/30 04:50:55;;;;;;;137.15;69.03;;;;;;;12.64;100.00;99794.31;2106353;28;20692;-73
2021/09/30 04:51:57;;;;;;;125.07;66.88;;;;;;;12.62;100.00;99788.44;2106184;28;20194;-74
2021/09/30 04:53:00;;;;;;;138.73;67.15;;;;;;;12.66;100.00;99798.28;2106144;28;20219;-74
2021/09/30 04:54:06;;;;;;;126.20;64.28;;;;;;;12.65;100.00;99801.25;2114487;28;20201;-73
2021/09/30 04:55:10;;;;;;;127.85;67.88;;;;;;;12.66;100.00;99808.97;2114625;28;20248;-74
2021/09/30 04:56:12;;;;;;;124.25;65.63;;;;;;;12.66;100.00;99805.50;2114503;28;20189;-73
2021/09/30 04:57:17;;;;;;;127.55;63.50;;;;;;;12.65;100.00;99807.38;2106946;28;20217;-73
2021/09/30 04:58:19;;;;;;;131.50;65.17;;;;;;;12.66;100.00;99803.63;2114498;28;20221;-74
2021/09/30 04:59:20;;;;;;;139.93;65.82;;;;;;;12.67;100.00;99804.41;2107667;28;20591;-73
2021/09/30 05:00:35;;;;;;;132.88;66.40;;;;;;;12.67;100.00;99804.41;2116108;28;20719;-73
2021/09/30 05:01:55;;;;;;;129.18;64.25;;;;;;;12.65;100.00;99796.69;2116034;28;20200;-73
2021/09/30 05:02:56;;;;;;;132.90;65.93;;;;;;;12.66;100.00;99803.63;2116088;28;20204;-74
2021/09/30 05:03:59;;;;;;;130.87;64.87;;;;;;;12.69;100.00;99804.94;2107015;28;20280;-73
2021/09/30 05:05:00;;;;;;;123.05;63.90;;;;;;;12.68;100.00;99804.16;2107979;28;20197;-74
2021/09/30 05:06:03;;;;;;;125.10;62.90;;;;;;;12.69;100.00;99807.63;2107805;28;20213;-73
2021/09/30 05:07:04;;;;;;;122.28;64.68;;;;;;;12.70;100.00;99809.22;2107621;28;20578;-74
2021/09/30 05:08:06;;;;;;;127.25;62.92;;;;;;;12.68;100.00;99809.50;2107570;28;20198;-74
2021/09/30 05:09:10;;;;;;;131.13;64.80;;;;;;;12.70;100.00;99814.56;2107936;28;20185;-74
2021/09/30 05:10:17;;;;;;;129.85;62.78;;;;;;;12.69;100.00;99811.09;2107553;28;20201;-73
2021/09/30 05:11:19;;;;;;;129.05;63.63;;;;;;;12.71;100.00;99808.91;2108287;28;20190;-73
2021/09/30 05:12:24;;;;;;;129.55;63.50;;;;;;;12.70;100.00;99810.00;2107638;28;20193;-73
2021/09/30 05:13:36;;;;;;;136.48;65.35;;;;;;;12.72;100.00;99815.06;2116039;28;20262;-73
2021/09/30 05:14:37;;;;;;;130.40;65.28;;;;;;;12.74;100.00;99812.88;2108909;28;20210;-73
2021/09/30 05:15:39;;;;;;;133.85;65.78;;;;;;;12.73;100.00;99816.66;2115860;28;20185;-74
2021/09/30 05:17:01;;;;;;;134.05;62.95;;;;;;;12.72;100.00;99818.53;2110293;28;20227;-73
2021/09/30 05:18:10;;;;;;;140.50;65.18;;;;;;;12.73;100.00;99819.31;2116294;28;20320;-74
2021/09/30 05:19:14;;;;;;;135.05;65.15;;;;;;;12.75;100.00;99827.84;2115836;28;20192;-73
2021/09/30 05:20:17;;;;;;;133.90;64.07;;;;;;;12.77;100.00;99819.53;2115864;28;20568;-74
2021/09/30 05:21:18;;;;;;;132.70;62.92;;;;;;;12.77;100.00;99824.88;2107433;28;20563;-74
2021/09/30 05:22:19;;;;;;;136.47;63.00;;;;;;;12.78;100.00;99827.28;2107434;28;20247;-74
2021/09/30 05:23:21;;;;;;;131.30;64.13;;;;;;;12.78;100.00;99821.16;2115926;28;20427;-74
2021/09/30 05:24:23;;;;;;;132.27;63.25;;;;;;;12.78;100.00;99826.50;2115791;28;20199;-74
2021/09/30 05:25:27;;;;;;;126.80;62.60;;;;;;;12.79;100.00;99831.56;2107404;28;20223;-74
2021/09/30 05:26:29;;;;;;;125.93;65.53;;;;;;;12.78;100.00;99827.28;2107849;28;20190;-73
2021/09/30 05:27:31;;;;;;;133.27;65.60;;;;;;;12.85;100.00;99825.03;2107453;28;20198;-73
2021/09/30 05:28:32;;;;;;;127.38;63.55;;;;;;;12.82;100.00;99839.00;2115892;28;20298;-74
2021/09/30 05:29:33;;;;;;;123.93;63.03;;;;;;;12.83;100.00;99839.78;2115709;28;20192;-74
2021/09/30 05:30:41;;;;;;;123.57;60.83;;;;;;;12.83;100.00;99835.22;2108192;28;20190;-74
2021/09/30 05:31:51;;;;;;;127.22;62.00;;;;;;;12.82;100.00;99838.22;2108368;28;20557;-74
2021/09/30 05:33:22;;;;;;;120.35;61.90;;;;;;;12.82;100.00;99839.00;2107415;28;20257;-74
2021/09/30 05:34:24;;;;;;;128.70;61.80;;;;;;;12.88;100.00;99847.78;2115658;28;20288;-74
2021/09/30 05:35:27;;;;;;;113.15;61.60;;;;;;;12.86;100.00;99834.66;2107385;28;20194;-73
2021/09/30 05:36:29;;;;;;;118.65;61.40;;;;;;;12.86;100.00;99845.38;2107570;28;20295;-74
2021/09/30 05:37:30;;;;;;;128.00;63.87;;;;;;;12.88;100.00;99848.56;2107343;28;20284;-74
2021/09/30 05:38:32;;;;;;;120.63;60.95;;;;;;;12.86;100.00;99848.06;2107475;28;20208;-74
2021/09/30 05:39:37;;;;;;;120.05;61.83;;;;;;;12.84;100.00;99852.09;2107291;28;20281;-74
2021/09/30 05:40:39;;;;;;;117.63;60.80;;;;;;;12.86;100.00;99847.28;2115606;28;20249;-74
2021/09/30 05:41:41;;;;;;;123.63;61.53;;;;;;;12.86;100.00;99850.75;2115879;28;20188;-73
2021/09/30 05:42:42;;;;;;;126.00;61.65;;;;;;;12.84;100.00;99850.22;2115691;28;20684;-74
2021/09/30 05:43:49;;;;;;;116.75;60.83;;;;;;;12.85;100.00;99854.47;2115655;28;20224;-74
2021/09/30 05:44:50;;;;;;;124.45;62.50;;;;;;;12.87;100.00;99860.38;2108193;28;20189;-74
2021/09/30 05:45:56;;;;;;;118.07;62.47;;;;;;;12.88;100.00;99859.28;2107274;28;20190;-74
2021/09/30 05:46:57;;;;;;;123.43;62.90;;;;;;;12.89;100.00;99865.41;2107783;28;20212;-73
2021/09/30 05:48:00;;;;;;;118.77;62.73;;;;;;;12.87;100.00;99862.25;2115688;28;20195;-73
2021/09/30 05:49:01;;;;;;;115.18;62.22;;;;;;;12.89;100.00;99860.06;2115585;28;20201;-74
2021/09/30 05:50:06;;;;;;;117.63;60.97;;;;;;;12.91;100.00;99861.34;2107202;28;20231;-74
2021/09/30 05:51:19;;;;;;;111.40;60.28;;;;;;;12.91;100.00;99866.72;2109035;28;20235;-74
2021/09/30 05:52:34;;;;;;;119.97;62.08;;;;;;;12.91;100.00;99869.41;2109077;28;20242;-74
2021/09/30 05:54:06;;;;;;;112.70;59.30;;;;;;;12.92;100.00;99860.28;2098768;28;20716;-74
2021/09/30 05:55:22;;;;;;;114.75;58.55;;;;;;;12.89;100.00;99870.78;2099992;28;20664;-74
2021/09/30 05:56:22;;;;;;;113.85;59.92;;;;;;;12.91;100.00;99874.75;2107579;28;20228;-74
2021/09/30 05:57:24;;;;;;;113.33;60.53;;;;;;;12.91;100.00;99874.75;2115522;28;20189;-74
2021/09/30 05:58:26;;;;;;;113.60;58.45;;;;;;;12.92;100.00;99876.34;2115472;28;20213;-74
2021/09/30 05:59:27;;;;;;;114.65;59.58;;;;;;;12.92;100.00;99870.97;2107197;28;20194;-74
2021/09/30 06:00:32;;;;;;;108.07;58.50;;;;;;;12.93;100.00;99877.94;2115489;28;20196;-74
2021/09/30 06:10:55;;;;;;;106.35;56.80;;;;;;;12.95;100.00;99899.09;2076288;28;20276;-74
2021/09/30 06:12:11;;;;;;;110.13;58.20;;;;;;;12.96;100.00;99892.66;2110641;27;20307;-74
2021/09/30 06:13:15;;;;;;;109.70;57.42;;;;;;;12.93;100.00;99896.69;2115468;28;20198;-75
2021/09/30 06:14:19;;;;;;;102.25;56.42;;;;;;;12.95;100.00;99910.59;2115724;28;20192;-75
2021/09/30 06:15:27;;;;;;;111.13;59.50;;;;;;;12.93;100.00;99904.72;2115252;28;20209;-74
2021/09/30 06:16:33;;;;;;;118.97;60.90;;;;;;;12.93;100.00;99909.28;2107941;28;20668;-74
2021/09/30 06:17:46;;;;;;;120.63;60.78;;;;;;;12.92;100.00;99907.69;2115315;28;20197;-75
2021/09/30 06:18:49;;;;;;;122.53;58.85;;;;;;;12.89;100.00;99903.72;2107340;28;20194;-74
2021/09/30 06:20:00;;;;;;;108.45;59.38;;;;;;;12.97;100.00;99916.44;2108325;28;20193;-76
2021/09/30 06:21:04;;;;;;;112.68;59.85;;;;;;;12.97;100.00;99913.78;2107279;28;20196;-76
2021/09/30 06:22:07;;;;;;;110.15;60.55;;;;;;;12.93;100.00;99917.31;2107073;28;20706;-77
2021/09/30 06:23:11;;;;;;;112.18;60.70;;;;;;;12.91;100.00;99917.59;2107473;28;20189;-76
2021/09/30 06:24:12;;;;;;;117.15;58.95;;;;;;;12.98;100.00;99922.59;2115389;28;20754;-77
2021/09/30 06:25:24;;;;;;;117.65;60.65;;;;;;;12.93;100.00;99917.31;2115284;28;20654;-76
2021/09/30 06:26:28;;;;;;;122.00;61.15;;;;;;;12.94;100.00;99927.75;2115343;28;20238;-77
2021/09/30 06:27:50;;;;;;;111.95;60.83;;;;;;;12.91;100.00;99922.16;2110048;28;20192;-76
2021/09/30 06:28:51;;;;;;;112.53;60.30;;;;;;;12.92;100.00;99924.56;2107065;28;20687;-76
2021/09/30 06:29:54;;;;;;;112.90;60.13;;;;;;;12.91;100.00;99919.50;2115352;28;20624;-76
2021/09/30 06:30:55;;;;;;;123.68;61.92;;;;;;;12.92;100.00;99921.88;2107071;28;20205;-77
2021/09/30 06:32:31;;;;;;;127.25;61.65;;;;;;;12.90;100.00;99925.94;2115578;28;20667;-75
2021/09/30 06:33:53;;;;;;;114.18;62.17;;;;;;;12.92;100.00;99916.50;2116130;28;20181;-80
2021/09/30 06:35:24;;;;;;;123.18;60.83;;;;;;;12.92;100.00;99929.13;2110777;28;20274;-79
2021/09/30 06:36:28;;;;;;;117.88;62.08;;;;;;;12.89;100.00;99927.81;2115640;28;20263;-84
2021/09/30 06:37:32;;;;;;;119.13;61.88;;;;;;;12.89;100.00;99930.50;2107156;28;20217;-77
2021/09/30 06:38:34;;;;;;;114.82;62.00;;;;;;;12.87;100.00;99929.22;2115322;28;20208;-76
2021/09/30 06:39:37;;;;;;;115.15;61.78;;;;;;;12.92;100.00;99934.47;2115244;28;20607;-77
2021/09/30 06:40:40;;;;;;;112.13;60.95;;;;;;;12.90;100.00;99934.75;2107263;28;20190;-77
2021/09/30 06:41:41;;;;;;;109.68;58.75;;;;;;;12.90;100.00;99944.69;2115259;28;20199;-78
2021/09/30 06:43:03;;;;;;;111.07;61.53;;;;;;;12.89;100.00;99938.53;2115556;28;20189;-77
2021/09/30 06:44:37;;;;;;;105.05;58.38;;;;;;;12.92;100.00;99948.66;2106582;28;20202;-77
2021/09/30 06:45:58;;;;;;;100.13;57.15;;;;;;;12.90;100.00;99953.50;2116008;28;20169;-77
2021/09/30 06:47:14;;;;;;;94.38;55.35;;;;;;;12.89;100.00;99946.56;2115246;28;20196;-76
2021/09/30 06:48:16;;;;;;;96.23;57.17;;;;;;;12.86;100.00;99949.84;2115199;28;20189;-75
2021/09/30 06:49:28;;;;;;;93.50;52.60;;;;;;;12.79;100.00;99945.91;2108673;28;20194;-76
2021/09/30 06:50:49;;;;;;;86.72;51.65;;;;;;;12.80;100.00;99944.84;2115238;28;20177;-75
2021/09/30 06:51:54;;;;;;;90.72;51.22;;;;;;;12.77;100.00;99951.56;2116251;28;20529;-75
2021/09/30 06:52:56;;;;;;;89.75;52.83;;;;;;;12.74;100.00;99942.22;2115195;28;20650;-76
2021/09/30 06:54:12;;;;;;;84.75;51.60;;;;;;;12.74;100.00;99950.25;2115630;28;20607;-76
2021/09/30 06:55:49;;;;;;;84.95;52.53;;;;;;;12.69;100.00;99957.56;2115627;28;20670;-75
2021/09/30 06:57:09;;;;;;;87.72;51.97;;;;;;;12.66;100.00;99947.41;2116011;28;20177;-76
2021/09/30 06:58:29;;;;;;;93.78;52.05;;;;;;;12.63;100.00;99950.66;2115919;28;20220;-75
2021/09/30 06:59:51;;;;;;;81.13;51.17;;;;;;;12.58;100.00;99951.50;2106714;28;20197;-79
2021/09/30 07:01:12;;;;;;;82.78;50.40;;;;;;;12.52;100.00;99951.88;2115891;28;20169;-77
2021/09/30 07:02:40;;;;;;;85.03;51.90;;;;;;;12.52;100.00;99955.38;2106562;28;20201;-77
2021/09/30 07:04:06;;;;;;;88.82;51.65;;;;;;;12.50;100.00;99959.38;2089829;28;20228;-77
2021/09/30 07:05:18;;;;;;;86.10;51.33;;;;;;;12.51;100.00;99961.81;2115311;28;20667;-77
2021/09/30 07:06:39;;;;;;;82.53;50.78;;;;;;;12.51;100.00;99960.97;2109834;28;20196;-84
2021/09/30 07:07:42;;;;;;;82.45;51.58;;;;;;;12.51;100.00;99977.88;2106861;28;20194;-80
2021/09/30 07:08:44;;;;;;;81.20;52.13;;;;;;;12.52;100.00;99970.63;2106870;28;20332;-78
2021/09/30 07:09:46;;;;;;;79.90;50.40;;;;;;;12.51;100.00;99971.69;2115267;28;20196;-79
2021/09/30 07:10:47;;;;;;;87.35;53.50;;;;;;;12.51;100.00;99961.81;2116128;27;20191;-77
2021/09/30 07:11:48;;;;;;;83.97;51.53;;;;;;;12.52;100.00;99963.41;2115693;28;20193;-79
2021/09/30 07:12:49;;;;;;;79.57;49.70;;;;;;;12.53;100.00;99958.84;2115805;28;20192;-82
2021/09/30 07:13:51;;;;;;;71.07;48.63;;;;;;;12.53;100.00;99964.19;2116044;28;20662;-81
2021/09/30 07:14:51;;;;;;;73.57;48.97;;;;;;;12.54;100.00;99960.44;2115682;28;20242;-80
2021/09/30 07:15:54;;;;;;;68.93;47.43;;;;;;;12.52;100.00;99959.91;2114893;28;20239;-80
2021/09/30 07:16:56;;;;;;;78.55;50.00;;;;;;;12.56;100.00;99961.72;2106685;28;20711;-80
2021/09/30 07:17:58;;;;;;;70.43;47.78;;;;;;;12.54;100.00;99961.22;2115205;28;20185;-80
2021/09/30 07:18:59;;;;;;;67.07;47.20;;;;;;;12.53;100.00;99969.53;2115771;28;20241;-80
2021/09/30 07:20:02;;;;;;;59.00;43.37;;;;;;;12.51;100.00;99961.81;2114957;28;20197;-81
2021/09/30 07:21:05;;;;;;;70.22;45.15;;;;;;;12.57;100.00;99966.00;2114824;28;20189;-80
2021/09/30 07:22:09;;;;;;;63.30;44.03;;;;;;;12.57;100.00;99954.50;2114833;28;20576;-80
2021/09/30 07:23:12;;;;;;;61.35;42.55;;;;;;;12.55;100.00;99956.66;2115176;28;20235;-80
2021/09/30 07:24:14;;;;;;;55.55;40.22;;;;;;;12.54;100.00;99955.06;2116145;28;20188;-81
2021/09/30 07:25:15;;;;;;;50.53;38.47;;;;;;;12.54;100.00;99960.44;2115687;28;20185;-81
2021/09/30 07:26:17;;;;;;;55.42;37.55;;;;;;;12.53;100.00;99972.22;2115123;28;20201;-78
2021/09/30 07:27:20;;;;;;;50.58;38.10;;;;;;;12.55;100.00;99970.03;2114947;28;20746;-78
2021/09/30 07:28:21;;;;;;;49.63;37.88;;;;;;;12.55;100.00;99962.00;2115609;28;20189;-77
2021/09/30 07:29:23;;;;;;;45.85;36.92;;;;;;;12.53;100.00;99964.97;2115811;28;20268;-78
2021/09/30 07:30:24;;;;;;;49.83;38.10;;;;;;;12.47;100.00;99959.97;2115563;28;20647;-78